Time;durP1;ratioP1;P1;durP2;ratioP2;P2;SDS_P1;SDS_P2;PMS_P1;PMS_P2;Temp;Humidity;BMP_temperature;BMP_pressure;BME280_temperature;BME280_humidity;BME280_pressure;Samples;Min_cycle;Max_cycle;Signal;HPM_P1;HPM_P2
2021/03/08 00:00:34;;;;;;;8.70;5.05;;;;;;;5.67;32.73;101913.16;5099176;28;20439;-74
2021/03/08 00:03:09;;;;;;;8.30;5.22;;;;;;;5.66;32.70;101911.41;5092983;28;20140;-74
2021/03/08 00:05:37;;;;;;;7.97;5.28;;;;;;;5.66;32.57;101910.53;5074989;28;20054;-74
2021/03/08 00:08:05;;;;;;;8.75;5.25;;;;;;;5.67;32.52;101913.16;5095339;28;20040;-74
2021/03/08 00:10:33;;;;;;;8.25;4.88;;;;;;;5.67;32.80;101915.88;5089962;28;20048;-74
2021/03/08 00:13:00;;;;;;;8.43;4.90;;;;;;;5.68;32.67;101908.63;5092484;28;20040;-74
2021/03/08 00:15:29;;;;;;;7.20;5.20;;;;;;;5.67;32.78;101913.16;5095358;28;20063;-74
2021/03/08 00:17:56;;;;;;;8.50;5.50;;;;;;;5.68;32.46;101911.34;5091665;28;20475;-73
2021/03/08 00:20:26;;;;;;;8.93;5.45;;;;;;;5.68;32.83;101908.63;5091292;28;20042;-74
2021/03/08 00:22:57;;;;;;;9.38;5.55;;;;;;;5.65;32.81;101901.50;5086063;28;20058;-74
2021/03/08 00:25:26;;;;;;;10.45;6.40;;;;;;;5.68;32.76;101905.91;5092358;28;20047;-74
2021/03/08 00:27:54;;;;;;;9.68;5.93;;;;;;;5.66;33.02;101896.94;5102087;28;20047;-74
2021/03/08 00:30:22;;;;;;;11.20;6.53;;;;;;;5.67;33.06;101902.31;5102584;28;20044;-74
2021/03/08 00:32:50;;;;;;;10.45;6.43;;;;;;;5.66;32.77;101896.94;5089954;28;20108;-74
2021/03/08 00:35:18;;;;;;;9.75;6.15;;;;;;;5.67;33.02;101905.03;5089270;28;20067;-74
2021/03/08 00:37:47;;;;;;;11.32;6.28;;;;;;;5.68;32.86;101904.03;5097857;28;20048;-74
2021/03/08 00:40:16;;;;;;;11.60;7.25;;;;;;;5.68;33.04;101904.03;5100608;28;20498;-73
2021/03/08 00:42:43;;;;;;;11.73;6.25;;;;;;;5.68;32.95;101900.47;5099225;28;20058;-74
2021/03/08 00:45:13;;;;;;;10.45;6.05;;;;;;;5.68;32.81;101914.06;5072784;28;20038;-74
2021/03/08 00:47:40;;;;;;;12.02;7.18;;;;;;;5.67;32.93;101918.59;5090562;28;20043;-74
2021/03/08 00:50:12;;;;;;;13.05;6.72;;;;;;;5.69;33.15;101910.34;5099190;28;20482;-74
2021/03/08 00:52:40;;;;;;;10.43;6.40;;;;;;;5.68;32.77;101903.19;5072198;28;20098;-74
2021/03/08 00:55:10;;;;;;;13.20;7.35;;;;;;;5.69;33.17;101907.63;5091136;28;20039;-73
2021/03/08 00:57:38;;;;;;;13.05;7.45;;;;;;;5.68;33.20;101911.34;5098201;28;20063;-73
2021/03/08 01:00:08;;;;;;;11.48;6.85;;;;;;;5.69;33.13;101904.91;5081735;28;20549;-73
2021/03/08 01:02:39;;;;;;;11.38;6.95;;;;;;;5.67;32.99;101891.44;5095779;28;20130;-73
2021/03/08 01:05:14;;;;;;;12.82;7.32;;;;;;;5.68;33.25;101900.47;5084798;28;20545;-74
2021/03/08 01:07:46;;;;;;;11.15;7.18;;;;;;;5.66;33.02;101905.97;5097911;28;20039;-74
2021/03/08 01:10:20;;;;;;;11.73;7.35;;;;;;;5.69;33.41;101911.22;5086854;28;20044;-73
2021/03/08 01:12:48;;;;;;;10.85;6.40;;;;;;;5.65;32.95;101898.78;5087521;28;20063;-73
2021/03/08 01:15:17;;;;;;;10.73;6.75;;;;;;;5.66;33.12;101897.84;5083730;28;20115;-74
2021/03/08 01:17:45;;;;;;;11.13;6.90;;;;;;;5.64;33.10;101894.31;5096708;28;20047;-73
2021/03/08 01:20:15;;;;;;;12.13;6.85;;;;;;;5.65;32.98;101887.91;5087566;28;20072;-73
2021/03/08 01:22:42;;;;;;;9.60;5.82;;;;;;;5.63;33.59;101891.66;5085747;28;20525;-74
2021/03/08 01:25:11;;;;;;;10.15;6.60;;;;;;;5.64;33.45;101888.00;5096183;28;20031;-74
2021/03/08 01:27:40;;;;;;;11.57;6.97;;;;;;;5.63;33.43;101880.81;5096817;28;20439;-73
2021/03/08 01:30:10;;;;;;;11.32;6.50;;;;;;;5.62;33.66;101876.31;5101043;28;20036;-74
2021/03/08 01:32:37;;;;;;;11.18;6.43;;;;;;;5.60;33.49;101879.09;5097710;28;20039;-73
2021/03/08 01:35:06;;;;;;;11.68;6.88;;;;;;;5.62;33.36;101874.50;5100330;28;20032;-74
2021/03/08 01:37:33;;;;;;;12.38;6.80;;;;;;;5.61;33.40;101875.44;5082311;28;20036;-73
2021/03/08 01:40:01;;;;;;;12.00;6.45;;;;;;;5.62;33.26;101869.06;5084179;28;20537;-73
2021/03/08 01:42:29;;;;;;;14.82;8.25;;;;;;;5.62;33.37;101865.47;5087431;28;20034;-72
2021/03/08 01:44:57;;;;;;;15.90;8.48;;;;;;;5.64;33.24;101869.88;5079613;28;20044;-74
2021/03/08 01:47:24;;;;;;;14.10;7.82;;;;;;;5.64;33.38;101866.28;5089554;28;20250;-74
2021/03/08 01:49:53;;;;;;;15.07;8.13;;;;;;;5.65;33.49;101868.03;5076308;28;20044;-74
2021/03/08 01:52:20;;;;;;;12.52;6.72;;;;;;;5.63;33.61;101868.09;5088644;28;20112;-71
2021/03/08 01:54:47;;;;;;;15.75;8.68;;;;;;;5.63;33.49;101865.41;5078814;28;20036;-72
2021/03/08 01:57:15;;;;;;;15.23;8.50;;;;;;;5.65;33.41;101868.03;5082147;28;20132;-72
2021/03/08 01:59:42;;;;;;;16.00;8.82;;;;;;;5.63;33.50;101862.69;5085919;28;20049;-72
2021/03/08 02:02:11;;;;;;;14.77;8.18;;;;;;;5.64;33.54;101867.16;5071034;28;20051;-73
2021/03/08 02:04:39;;;;;;;13.27;7.93;;;;;;;5.64;33.65;101855.41;5085854;28;20051;-73
2021/03/08 02:07:06;;;;;;;12.73;8.02;;;;;;;5.64;33.45;101859.00;5085930;28;20111;-73
2021/03/08 02:09:33;;;;;;;14.60;8.10;;;;;;;5.63;33.60;101857.25;5088361;28;20051;-73
2021/03/08 02:12:09;;;;;;;17.77;8.88;;;;;;;5.64;33.93;101856.31;5089355;28;20046;-73
2021/03/08 02:15:08;;;;;;;16.85;8.93;;;;;;;5.63;34.02;101856.38;5077853;28;20047;-73
2021/03/08 02:17:40;;;;;;;16.27;8.30;;;;;;;5.62;33.61;101851.91;5080237;28;20051;-73
2021/03/08 02:20:33;;;;;;;17.58;8.80;;;;;;;5.61;34.19;101851.00;5075291;28;20130;-72
2021/03/08 02:23:23;;;;;;;16.77;8.60;;;;;;;5.62;34.30;101849.19;5083790;28;20383;-73
2021/03/08 02:26:16;;;;;;;16.17;8.18;;;;;;;5.58;33.90;101846.63;5066011;28;20046;-73
2021/03/08 02:29:19;;;;;;;16.73;9.48;;;;;;;5.56;34.18;101839.53;5085296;28;20491;-72
2021/03/08 02:31:50;;;;;;;15.07;8.20;;;;;;;5.55;34.15;101840.47;5049936;28;20059;-72
2021/03/08 02:34:23;;;;;;;15.90;8.30;;;;;;;5.58;33.98;101843.03;5083809;28;20066;-73
2021/03/08 02:37:04;;;;;;;16.90;9.10;;;;;;;5.57;34.41;101838.56;5067919;28;20071;-72
2021/03/08 02:39:35;;;;;;;18.10;8.60;;;;;;;5.56;33.94;101842.22;5087868;28;20047;-72
2021/03/08 02:42:06;;;;;;;17.23;8.98;;;;;;;5.55;33.96;101841.34;5083957;28;20507;-72
2021/03/08 02:44:37;;;;;;;16.50;8.52;;;;;;;5.56;34.24;101834.09;5087905;28;20043;-73
2021/03/08 02:47:07;;;;;;;15.68;9.07;;;;;;;5.55;33.93;101827.78;5074838;28;20051;-72
2021/03/08 02:49:36;;;;;;;16.40;9.10;;;;;;;5.55;34.06;101835.03;5095156;28;20044;-72
2021/03/08 02:52:09;;;;;;;17.92;9.20;;;;;;;5.55;34.28;101827.78;5083873;28;20111;-73
2021/03/08 02:54:39;;;;;;;16.45;8.90;;;;;;;5.54;33.89;101836.88;5087758;28;20069;-72
2021/03/08 02:57:09;;;;;;;16.98;9.68;;;;;;;5.54;34.03;101834.16;5087433;28;20685;-73
2021/03/08 02:59:39;;;;;;;18.45;9.57;;;;;;;5.54;34.00;101826.03;5083937;28;20070;-73
2021/03/08 03:02:08;;;;;;;15.70;9.23;;;;;;;5.56;34.01;101826.84;5083930;28;20122;-73
2021/03/08 03:04:39;;;;;;;17.92;9.48;;;;;;;5.56;34.19;101825.94;5093705;28;20534;-72
2021/03/08 03:07:07;;;;;;;16.55;8.75;;;;;;;5.55;34.33;101827.78;5088251;28;20122;-73
2021/03/08 03:09:36;;;;;;;17.33;9.25;;;;;;;5.57;34.29;101825.00;5091080;28;20127;-73
2021/03/08 03:12:06;;;;;;;17.52;9.23;;;;;;;5.56;34.08;101826.84;5092980;28;20044;-72
2021/03/08 03:14:35;;;;;;;18.20;9.77;;;;;;;5.55;34.29;101827.78;5087872;28;20072;-73
2021/03/08 03:17:08;;;;;;;14.40;8.23;;;;;;;5.56;34.11;101829.53;5081751;28;20036;-72
2021/03/08 03:19:42;;;;;;;17.50;9.38;;;;;;;5.57;34.45;101825.88;5074074;28;20119;-73
2021/03/08 03:22:12;;;;;;;16.48;9.27;;;;;;;5.55;34.14;101830.50;5087288;28;20386;-73
2021/03/08 03:24:40;;;;;;;17.08;9.15;;;;;;;5.54;34.01;101831.44;5082115;28;20042;-73
2021/03/08 03:27:08;;;;;;;19.50;9.48;;;;;;;5.54;34.30;101834.16;5086992;28;20048;-73
2021/03/08 03:29:37;;;;;;;14.60;8.30;;;;;;;5.55;34.32;101835.91;5084553;28;20123;-73
2021/03/08 03:32:06;;;;;;;18.50;9.35;;;;;;;5.54;34.28;101830.56;5090901;28;20047;-73
2021/03/08 03:34:35;;;;;;;17.15;9.45;;;;;;;5.54;34.40;101819.72;5082813;28;20054;-73
2021/03/08 03:37:03;;;;;;;18.58;9.25;;;;;;;5.53;34.34;101826.09;5088811;28;20613;-73
2021/03/08 03:39:30;;;;;;;16.55;9.00;;;;;;;5.55;34.40;101837.75;5079087;28;20063;-73
2021/03/08 03:41:59;;;;;;;17.95;9.25;;;;;;;5.55;34.55;101832.31;5085822;28;20036;-73
2021/03/08 03:44:26;;;;;;;16.77;9.23;;;;;;;5.54;34.39;101836.88;5086988;28;20039;-73
2021/03/08 03:46:53;;;;;;;18.52;10.18;;;;;;;5.53;34.76;101828.81;5080521;28;20124;-73
2021/03/08 03:49:21;;;;;;;19.23;10.25;;;;;;;5.53;34.72;101826.09;5089054;28;20044;-73
2021/03/08 03:51:49;;;;;;;18.35;10.18;;;;;;;5.54;34.80;101828.72;5082729;28;20037;-73
2021/03/08 03:54:17;;;;;;;20.25;10.15;;;;;;;5.52;34.37;101838.78;5081150;28;20621;-73
2021/03/08 03:56:51;;;;;;;17.42;9.27;;;;;;;5.54;35.09;101834.16;5097637;28;20033;-73
2021/03/08 03:59:22;;;;;;;18.17;9.90;;;;;;;5.52;34.96;101838.78;5076484;28;20049;-73
2021/03/08 04:01:58;;;;;;;16.65;9.38;;;;;;;5.52;34.63;101841.50;5096588;28;20044;-73
2021/03/08 04:04:29;;;;;;;16.30;8.95;;;;;;;5.52;34.72;101843.31;5079896;28;20068;-73
2021/03/08 04:06:59;;;;;;;18.35;10.10;;;;;;;5.51;34.67;101836.16;5092743;28;20040;-73
2021/03/08 04:09:27;;;;;;;19.63;9.60;;;;;;;5.51;34.82;101841.59;5093449;28;20394;-72
2021/03/08 04:11:58;;;;;;;17.27;9.27;;;;;;;5.51;34.66;101837.00;5085388;28;20042;-73
2021/03/08 04:14:28;;;;;;;20.05;10.63;;;;;;;5.50;34.89;101839.84;5093512;28;20069;-72
2021/03/08 04:16:58;;;;;;;16.80;9.23;;;;;;;5.51;35.06;101842.44;5090688;28;20491;-72
2021/03/08 04:19:29;;;;;;;19.17;9.48;;;;;;;5.51;35.09;101850.59;5083610;28;20052;-72
2021/03/08 04:22:01;;;;;;;15.65;9.07;;;;;;;5.51;35.44;101847.03;5097318;28;20475;-71
2021/03/08 04:24:32;;;;;;;17.05;9.27;;;;;;;5.50;34.63;101853.41;5089734;28;20828;-72
2021/03/08 04:27:05;;;;;;;19.40;10.07;;;;;;;5.49;34.99;101844.38;5096120;28;20111;-72
2021/03/08 04:29:35;;;;;;;19.75;10.30;;;;;;;5.48;34.89;101849.88;5095196;28;20767;-72
2021/03/08 04:32:17;;;;;;;19.67;10.02;;;;;;;5.46;34.90;101852.63;5076372;28;20075;-72
2021/03/08 04:34:46;;;;;;;18.30;9.88;;;;;;;5.46;35.15;101857.16;5092016;28;20036;-72
2021/03/08 04:37:15;;;;;;;19.67;10.60;;;;;;;5.47;35.00;101853.50;5086077;28;20047;-72
2021/03/08 04:39:44;;;;;;;19.17;10.35;;;;;;;5.46;35.26;101849.03;5075519;28;20493;-72
2021/03/08 04:42:14;;;;;;;19.27;11.13;;;;;;;5.46;35.19;101859.88;5094487;28;20051;-72
2021/03/08 04:44:46;;;;;;;20.00;10.45;;;;;;;5.44;34.92;101859.94;5090399;28;20480;-72
2021/03/08 04:47:17;;;;;;;20.60;10.05;;;;;;;5.43;35.35;101863.63;5093587;28;20118;-72
2021/03/08 04:49:47;;;;;;;22.40;10.57;;;;;;;5.43;35.25;101860.91;5093076;28;20063;-73
2021/03/08 04:52:17;;;;;;;18.60;9.85;;;;;;;5.44;35.34;101861.78;5100685;28;20082;-73
2021/03/08 04:54:46;;;;;;;19.42;9.93;;;;;;;5.42;35.11;101861.00;5088293;28;20036;-73
2021/03/08 04:57:17;;;;;;;18.60;9.77;;;;;;;5.42;35.38;101864.59;5097772;28;20044;-72
2021/03/08 04:59:47;;;;;;;17.92;9.52;;;;;;;5.41;35.48;101856.53;5093803;28;20115;-72
2021/03/08 05:02:25;;;;;;;19.25;10.18;;;;;;;5.40;35.14;101863.78;5086339;28;20052;-72
2021/03/08 05:04:53;;;;;;;20.65;10.50;;;;;;;5.40;35.54;101863.78;5094261;28;20537;-72
2021/03/08 05:07:23;;;;;;;20.95;11.07;;;;;;;5.41;35.35;101864.66;5094144;28;20086;-72
2021/03/08 05:09:53;;;;;;;20.08;10.65;;;;;;;5.39;35.48;101866.56;5091089;28;20047;-73
2021/03/08 05:12:24;;;;;;;17.45;10.00;;;;;;;5.38;35.50;101865.69;5079882;28;20040;-72
2021/03/08 05:14:53;;;;;;;18.67;9.85;;;;;;;5.40;35.49;101868.34;5091175;28;20482;-72
2021/03/08 05:17:22;;;;;;;18.95;10.20;;;;;;;5.40;35.59;101873.75;5095118;28;20040;-72
2021/03/08 05:19:51;;;;;;;22.92;10.98;;;;;;;5.39;35.56;101872.88;5073077;28;20108;-72
2021/03/08 05:22:19;;;;;;;23.73;12.13;;;;;;;5.38;35.62;101865.69;5086475;28;20046;-72
2021/03/08 05:24:50;;;;;;;20.40;10.93;;;;;;;5.40;35.97;101866.50;5091343;28;20040;-72
2021/03/08 05:27:18;;;;;;;19.67;10.48;;;;;;;5.38;35.40;101868.41;5091886;28;20036;-72
2021/03/08 05:29:47;;;;;;;17.10;10.30;;;;;;;5.39;35.43;101874.72;5073526;28;20510;-72
2021/03/08 05:32:20;;;;;;;20.52;10.20;;;;;;;5.38;35.67;101873.81;5088720;28;20048;-72
2021/03/08 05:34:50;;;;;;;17.80;10.15;;;;;;;5.35;35.53;101882.09;5090201;28;20052;-73
2021/03/08 05:37:19;;;;;;;19.13;10.30;;;;;;;5.38;35.84;101881.09;5091154;28;20040;-72
2021/03/08 05:39:48;;;;;;;19.98;10.27;;;;;;;5.35;35.85;101876.69;5096250;28;20044;-72
2021/03/08 05:42:18;;;;;;;20.20;11.20;;;;;;;5.36;35.60;101875.72;5092888;28;20051;-72
2021/03/08 05:44:51;;;;;;;20.95;10.07;;;;;;;5.37;35.91;101882.91;5094736;28;20051;-72
2021/03/08 05:47:35;;;;;;;20.63;10.30;;;;;;;5.37;36.18;101884.75;5081055;28;20506;-72
2021/03/08 05:50:36;;;;;;;19.48;10.70;;;;;;;5.37;36.28;101880.22;5087633;28;20107;-72
2021/03/08 05:53:23;;;;;;;18.60;9.73;;;;;;;5.35;36.30;101886.66;5090307;28;20147;-72
2021/03/08 05:56:23;;;;;;;21.40;10.23;;;;;;;5.30;36.53;101886.88;5087133;28;20039;-71
2021/03/08 05:59:31;;;;;;;19.77;10.70;;;;;;;5.34;36.47;101890.34;5051502;28;20523;-72
2021/03/08 06:02:30;;;;;;;19.02;9.90;;;;;;;5.33;36.34;101886.75;5087812;28;20043;-72
2021/03/08 06:05:37;;;;;;;18.33;9.30;;;;;;;5.30;36.58;101895.03;5091491;28;20071;-72
2021/03/08 06:08:29;;;;;;;19.13;10.07;;;;;;;5.31;36.25;101891.38;5081504;28;20043;-73
2021/03/08 06:11:06;;;;;;;22.17;11.27;;;;;;;5.31;36.33;101893.19;5087339;28;20040;-73
2021/03/08 06:13:41;;;;;;;22.27;11.07;;;;;;;5.30;36.41;101891.44;5086640;28;20212;-72
2021/03/08 06:16:24;;;;;;;21.77;11.18;;;;;;;5.28;36.04;101894.22;5078318;28;20043;-73
2021/03/08 06:18:53;;;;;;;21.40;11.20;;;;;;;5.25;36.05;101893.50;5085197;28;20094;-72
2021/03/08 06:21:20;;;;;;;20.30;10.43;;;;;;;5.26;36.19;101897.97;5086579;28;20043;-73
2021/03/08 06:23:47;;;;;;;22.02;10.90;;;;;;;5.25;36.18;101896.22;5094800;28;20048;-73
2021/03/08 06:26:14;;;;;;;20.23;10.75;;;;;;;5.25;36.14;101897.09;5092977;28;20047;-73
2021/03/08 06:28:42;;;;;;;20.73;11.40;;;;;;;5.25;36.00;101905.22;5079492;28;20130;-73
2021/03/08 06:31:10;;;;;;;20.27;9.95;;;;;;;5.26;36.41;101901.56;5096120;28;20044;-73
2021/03/08 06:33:52;;;;;;;19.73;10.50;;;;;;;5.23;36.18;101901.69;5075532;28;20048;-73
2021/03/08 06:36:21;;;;;;;21.40;11.15;;;;;;;5.23;36.27;101899.88;5079505;28;20044;-73
2021/03/08 06:38:49;;;;;;;20.63;10.65;;;;;;;5.25;36.13;101901.63;5097994;28;20036;-72
2021/03/08 06:41:17;;;;;;;20.55;10.63;;;;;;;5.25;36.13;101915.19;5088696;28;20452;-73
2021/03/08 06:43:45;;;;;;;20.00;10.07;;;;;;;5.25;36.22;101907.06;5092739;28;20047;-72
2021/03/08 06:46:15;;;;;;;22.10;11.18;;;;;;;5.26;36.73;101912.41;5070475;28;20036;-73
2021/03/08 06:48:43;;;;;;;23.88;11.50;;;;;;;5.23;36.16;101910.72;5092988;28;20040;-72
2021/03/08 06:51:13;;;;;;;24.55;12.13;;;;;;;5.27;36.56;101921.41;5092417;28;20051;-72
2021/03/08 06:53:40;;;;;;;24.17;12.18;;;;;;;5.26;36.22;101927.81;5094166;28;20127;-74
2021/03/08 06:56:15;;;;;;;19.25;11.05;;;;;;;5.28;36.84;101923.16;5079781;28;20046;-73
2021/03/08 06:58:43;;;;;;;21.65;11.15;;;;;;;5.25;36.56;101932.34;5081080;28;20036;-72
2021/03/08 07:01:29;;;;;;;23.33;12.52;;;;;;;5.26;37.29;101936.84;5085608;28;20040;-73
2021/03/08 07:04:17;;;;;;;23.25;12.70;;;;;;;5.23;36.60;101937.84;5081949;28;20037;-75
2021/03/08 07:06:58;;;;;;;20.20;11.15;;;;;;;5.28;36.95;101931.31;5063955;28;20116;-75
2021/03/08 07:09:26;;;;;;;22.83;11.65;;;;;;;5.26;36.60;101941.38;5069712;28;20036;-76
2021/03/08 07:15:02;;;;;;;22.35;10.65;;;;;;;5.28;37.21;101953.00;5093577;28;20040;-74
2021/03/08 07:17:33;;;;;;;23.23;11.88;;;;;;;5.26;36.69;101950.41;5078362;28;20496;-74
2021/03/08 07:20:03;;;;;;;22.13;11.48;;;;;;;5.27;37.00;101956.69;5080300;28;20040;-73
2021/03/08 07:22:42;;;;;;;24.55;12.40;;;;;;;5.29;37.40;101954.78;5093531;28;20606;-74
2021/03/08 07:25:17;;;;;;;22.75;11.80;;;;;;;5.28;37.45;101948.47;5102437;28;20135;-74
2021/03/08 07:27:46;;;;;;;23.52;12.25;;;;;;;5.27;36.72;101954.84;5094140;28;20043;-74
2021/03/08 07:30:15;;;;;;;23.98;12.10;;;;;;;5.27;36.83;101954.84;5105833;28;20078;-74
2021/03/08 07:32:55;;;;;;;26.58;12.88;;;;;;;5.30;37.68;101948.41;5096368;28;20514;-74
2021/03/08 07:35:33;;;;;;;21.85;11.45;;;;;;;5.30;37.66;101953.81;5091102;28;20118;-73
2021/03/08 07:38:01;;;;;;;20.85;10.98;;;;;;;5.28;36.59;101958.44;5076542;28;20044;-73
2021/03/08 07:40:29;;;;;;;24.73;12.70;;;;;;;5.29;36.86;101958.38;5083938;28;20445;-74
2021/03/08 07:42:56;;;;;;;25.95;13.00;;;;;;;5.29;37.05;101954.78;5094446;28;20036;-75
2021/03/08 07:45:40;;;;;;;21.60;10.77;;;;;;;5.33;37.53;101959.13;5098496;28;20044;-75
2021/03/08 07:48:10;;;;;;;26.02;12.60;;;;;;;5.32;37.07;101962.78;5093498;28;20047;-74
2021/03/08 07:50:39;;;;;;;25.75;12.93;;;;;;;5.32;37.22;101963.66;5100825;28;20047;-74
2021/03/08 07:53:27;;;;;;;27.55;12.18;;;;;;;5.35;37.76;101970.75;5095752;28;20126;-74
2021/03/08 07:55:56;;;;;;;27.98;13.93;;;;;;;5.33;37.22;101969.97;5093011;28;20549;-75
2021/03/08 07:58:26;;;;;;;27.92;13.70;;;;;;;5.35;37.01;101977.06;5091353;28;20039;-74
2021/03/08 08:00:54;;;;;;;27.45;14.23;;;;;;;5.35;37.25;101968.94;5073204;28;20093;-75
2021/03/08 08:03:24;;;;;;;24.63;12.32;;;;;;;5.35;37.13;101963.50;5090170;28;20562;-77
2021/03/08 08:05:55;;;;;;;23.20;11.95;;;;;;;5.38;37.37;101971.50;5096132;28;20044;-77
2021/03/08 08:12:11;;;;;;;27.65;12.65;;;;;;;5.35;37.78;101970.75;5091561;28;20593;-76
2021/03/08 08:14:40;;;;;;;24.65;12.25;;;;;;;5.37;36.97;101974.28;5091821;28;20394;-77
2021/03/08 08:17:09;;;;;;;27.63;13.65;;;;;;;5.40;37.15;101966.03;5097499;28;20071;-73
2021/03/08 08:19:41;;;;;;;26.95;12.93;;;;;;;5.40;37.50;101963.31;5095468;28;20048;-73
2021/03/08 08:22:16;;;;;;;26.25;13.52;;;;;;;5.43;37.69;101965.88;5091464;28;20075;-72
2021/03/08 08:24:45;;;;;;;23.40;12.13;;;;;;;5.42;37.19;101973.16;5091000;28;20044;-73
2021/03/08 08:27:13;;;;;;;21.17;11.60;;;;;;;5.42;37.37;101962.28;5085444;28;20044;-73
2021/03/08 08:29:41;;;;;;;28.00;12.55;;;;;;;5.43;37.57;101966.72;5087082;28;20044;-74
2021/03/08 08:32:09;;;;;;;28.85;13.38;;;;;;;5.45;37.20;101969.38;5097146;28;20083;-74
2021/03/08 08:34:39;;;;;;;28.95;14.55;;;;;;;5.46;37.18;101968.44;5091407;28;20040;-75
2021/03/08 08:37:11;;;;;;;23.70;11.20;;;;;;;5.49;37.67;101962.91;5075139;28;20719;-75
2021/03/08 08:39:40;;;;;;;24.83;11.88;;;;;;;5.47;37.49;101962.06;5078666;28;20038;-75
2021/03/08 08:42:16;;;;;;;25.10;12.93;;;;;;;5.51;37.71;101956.44;5078225;28;20044;-75
2021/03/08 08:44:44;;;;;;;26.27;13.38;;;;;;;5.49;37.74;101958.34;5067581;28;20052;-75
2021/03/08 08:47:30;;;;;;;25.70;12.95;;;;;;;5.52;37.90;101957.31;5091672;28;20370;-75
2021/03/08 08:50:05;;;;;;;25.13;13.20;;;;;;;5.54;37.88;101952.69;5092931;28;20072;-75
2021/03/08 08:52:44;;;;;;;26.60;12.85;;;;;;;5.56;37.90;101962.53;5077708;28;20067;-73
2021/03/08 08:55:12;;;;;;;31.10;14.88;;;;;;;5.55;37.33;101960.78;5084920;28;20190;-74
2021/03/08 08:58:31;;;;;;;27.55;14.07;;;;;;;5.52;38.53;101960.03;5091376;28;20027;-78
2021/03/08 09:01:31;;;;;;;28.98;14.77;;;;;;;5.57;38.61;101963.41;5094050;28;20036;-75
2021/03/08 09:04:00;;;;;;;30.58;14.98;;;;;;;5.56;37.92;101967.97;5093608;28;20036;-76
2021/03/08 09:06:59;;;;;;;25.85;13.23;;;;;;;5.55;38.66;101962.59;5057344;28;20569;-77
2021/03/08 09:09:57;;;;;;;29.25;14.20;;;;;;;5.53;38.87;101957.25;5070033;28;20048;-76
2021/03/08 09:12:44;;;;;;;25.27;12.18;;;;;;;5.54;38.36;101964.44;5085603;28;20135;-75
2021/03/08 09:15:16;;;;;;;25.23;12.80;;;;;;;5.58;38.12;101959.75;5090815;28;20040;-76
2021/03/08 09:17:45;;;;;;;25.98;13.32;;;;;;;5.60;37.93;101960.53;5094637;28;20050;-76
2021/03/08 09:20:24;;;;;;;29.55;14.98;;;;;;;5.63;39.21;101962.22;5090615;28;20517;-75
2021/03/08 09:22:54;;;;;;;30.80;15.38;;;;;;;5.60;38.27;101956.00;5086314;28;20064;-74
2021/03/08 09:25:32;;;;;;;30.58;14.32;;;;;;;5.65;39.06;101963.03;5076326;28;20048;-78
2021/03/08 09:28:02;;;;;;;28.20;14.30;;;;;;;5.63;38.70;101957.69;5084425;28;20039;-78
2021/03/08 09:30:31;;;;;;;29.33;14.05;;;;;;;5.65;38.10;101957.63;5091729;28;20043;-78
2021/03/08 09:33:06;;;;;;;26.85;13.65;;;;;;;5.66;38.49;101960.25;5078806;28;20036;-75
2021/03/08 09:35:37;;;;;;;26.25;13.55;;;;;;;5.68;38.59;101962.91;5076762;28;20104;-76
2021/03/08 09:38:08;;;;;;;25.40;12.48;;;;;;;5.70;38.66;101960.97;5072732;28;20040;-74
2021/03/08 09:40:38;;;;;;;25.48;12.95;;;;;;;5.72;38.84;101961.78;5097235;28;20050;-77
2021/03/08 09:43:21;;;;;;;22.77;11.90;;;;;;;5.74;39.43;101958.06;5094028;28;20075;-78
2021/03/08 09:46:07;;;;;;;30.10;14.77;;;;;;;5.74;39.98;101959.88;5089160;28;20071;-72
2021/03/08 09:51:43;;;;;;;31.35;15.68;;;;;;;5.75;38.82;101961.66;5076936;28;20415;-73
2021/03/08 09:54:21;;;;;;;34.05;16.48;;;;;;;5.79;39.15;101957.81;5072363;28;20096;-74
2021/03/08 09:56:48;;;;;;;29.33;14.55;;;;;;;5.77;38.87;101960.59;5101475;28;20100;-74
2021/03/08 09:59:19;;;;;;;30.13;14.65;;;;;;;5.81;39.34;101964.06;5084432;28;20046;-74
2021/03/08 10:01:50;;;;;;;33.10;15.75;;;;;;;5.83;40.12;101954.00;5084436;28;20059;-74
2021/03/08 10:04:18;;;;;;;38.67;16.67;;;;;;;5.83;39.16;101964.88;5092506;28;20135;-73
2021/03/08 10:06:46;;;;;;;28.48;14.65;;;;;;;5.85;39.23;101952.06;5070526;28;20139;-73
2021/03/08 10:09:19;;;;;;;32.63;15.27;;;;;;;5.89;40.19;101959.13;5070724;28;20043;-73
2021/03/08 10:11:47;;;;;;;35.47;17.48;;;;;;;5.86;39.27;101965.59;5061960;28;20639;-73
2021/03/08 10:14:24;;;;;;;37.63;18.30;;;;;;;5.92;40.47;101959.00;5070460;28;20055;-74
2021/03/08 10:17:03;;;;;;;42.83;19.35;;;;;;;5.95;40.71;101956.09;5090033;28;20644;-78
2021/03/08 10:19:32;;;;;;;44.10;19.90;;;;;;;5.93;39.65;101961.59;5094055;28;20035;-76
2021/03/08 10:22:02;;;;;;;40.67;19.08;;;;;;;5.94;39.34;101955.22;5064099;28;20040;-74
2021/03/08 10:24:34;;;;;;;43.70;19.02;;;;;;;5.99;40.22;101963.16;5067594;28;20146;-73
2021/03/08 10:27:09;;;;;;;37.88;18.40;;;;;;;5.98;39.70;101953.25;5078322;28;20041;-73
2021/03/08 10:29:38;;;;;;;39.47;18.23;;;;;;;6.00;39.64;101951.34;5091759;28;20032;-72
2021/03/08 10:32:07;;;;;;;41.42;18.30;;;;;;;6.04;39.58;101961.09;5104224;28;20082;-75
2021/03/08 10:34:36;;;;;;;40.15;19.23;;;;;;;6.06;39.89;101959.19;5071278;28;20052;-75
2021/03/08 10:37:10;;;;;;;34.25;16.33;;;;;;;6.08;40.09;101965.41;5078803;28;20082;-76
2021/03/08 10:39:40;;;;;;;40.53;18.73;;;;;;;6.12;39.82;101960.69;5087772;28;20044;-74
2021/03/08 10:42:08;;;;;;;44.45;20.95;;;;;;;6.14;39.76;101956.06;5053033;28;20040;-74
2021/03/08 10:44:36;;;;;;;44.42;20.55;;;;;;;6.15;39.66;101958.72;5084349;28;20075;-73
2021/03/08 10:47:12;;;;;;;44.67;21.27;;;;;;;6.21;40.63;101952.97;5084671;28;20127;-74
2021/03/08 10:49:51;;;;;;;41.90;19.40;;;;;;;6.23;41.12;101952.91;5084024;28;20058;-74
2021/03/08 10:52:19;;;;;;;41.85;19.30;;;;;;;6.23;39.76;101948.34;5070634;28;20044;-74
2021/03/08 10:54:47;;;;;;;47.53;21.45;;;;;;;6.26;40.02;101950.88;5088737;28;20040;-74
2021/03/08 10:57:15;;;;;;;46.97;21.30;;;;;;;6.28;40.02;101956.25;5086170;28;20557;-74
2021/03/08 10:59:47;;;;;;;39.28;18.10;;;;;;;6.32;40.27;101956.03;5088720;28;20032;-73
2021/03/08 11:02:16;;;;;;;49.25;22.45;;;;;;;6.31;39.87;101953.38;5082560;28;20066;-73
2021/03/08 11:04:45;;;;;;;44.30;20.25;;;;;;;6.35;40.13;101963.13;5083604;28;20544;-73
2021/03/08 11:07:33;;;;;;;44.15;21.17;;;;;;;6.38;39.82;101964.81;5073306;28;20126;-75
2021/03/08 11:10:06;;;;;;;45.20;21.23;;;;;;;6.43;40.53;101962.72;5079983;28;20029;-75
2021/03/08 11:12:34;;;;;;;48.92;22.20;;;;;;;6.41;39.97;101959.22;5084746;28;20062;-75
2021/03/08 11:15:03;;;;;;;42.30;20.90;;;;;;;6.45;40.08;101963.53;5084422;28;20096;-75
2021/03/08 11:17:36;;;;;;;50.80;23.33;;;;;;;6.47;40.35;101965.22;5086919;28;20072;-74
2021/03/08 11:20:12;;;;;;;47.87;22.80;;;;;;;6.49;40.69;101962.44;5086061;28;20036;-76
2021/03/08 11:23:00;;;;;;;44.47;22.17;;;;;;;6.50;40.91;101961.47;5085839;28;20089;-75
2021/03/08 11:25:31;;;;;;;46.53;23.15;;;;;;;6.51;40.12;101963.22;5072573;28;20505;-75
2021/03/08 11:28:04;;;;;;;51.22;23.20;;;;;;;6.52;40.12;101968.56;5069903;28;20132;-75
2021/03/08 11:30:32;;;;;;;53.58;24.75;;;;;;;6.53;40.06;101961.31;5087657;28;20325;-75
2021/03/08 11:33:01;;;;;;;48.80;23.52;;;;;;;6.54;40.00;101961.22;5088156;28;20047;-75
2021/03/08 11:35:32;;;;;;;49.25;23.23;;;;;;;6.56;39.85;101962.03;5088970;28;20498;-74
2021/03/08 11:38:24;;;;;;;53.42;24.65;;;;;;;6.58;40.23;101960.09;5080797;28;20255;-75
2021/03/08 11:40:52;;;;;;;46.92;22.23;;;;;;;6.59;40.03;101964.56;5076699;28;20039;-75
2021/03/08 11:43:22;;;;;;;46.67;21.63;;;;;;;6.60;40.06;101963.63;5081731;28;20062;-75
2021/03/08 11:45:50;;;;;;;49.35;22.85;;;;;;;6.60;40.08;101960.91;5085538;28;20032;-75
2021/03/08 11:48:22;;;;;;;47.72;24.55;;;;;;;6.64;40.14;101958.91;5082418;28;20039;-74
2021/03/08 11:50:50;;;;;;;52.70;24.45;;;;;;;6.61;39.88;101953.63;5088634;28;20116;-75
2021/03/08 11:53:18;;;;;;;53.25;24.13;;;;;;;6.65;40.12;101956.13;5068234;28;20147;-74
2021/03/08 11:55:45;;;;;;;54.63;24.83;;;;;;;6.67;39.79;101954.19;5086864;28;20054;-74